createdAt,value
2019-02-21T00:04:30.966Z,90.76
2019-02-21T00:05:30.913Z,99.99
2019-02-21T00:07:25.777Z,74.31
2019-02-21T00:08:25.754Z,63.54
2019-02-21T00:10:20.628Z,58.48
2019-02-21T00:11:20.571Z,57.81
2019-02-21T00:13:15.434Z,58.10
2019-02-21T00:14:15.401Z,58.92
2019-02-21T00:16:09.902Z,59.40
2019-02-21T00:17:09.858Z,59.97
2019-02-21T00:19:05.104Z,61.55
2019-02-21T00:20:05.064Z,61.55
2019-02-21T00:22:00.937Z,60.70
2019-02-21T00:23:00.899Z,60.70
2019-02-21T00:24:55.756Z,61.36
2019-02-21T00:25:55.908Z,60.98
2019-02-21T00:27:50.593Z,61.61
2019-02-21T00:28:50.557Z,62.28
2019-02-21T00:30:45.416Z,63.13
2019-02-21T00:31:45.384Z,62.75
2019-02-21T00:33:40.255Z,63.32
2019-02-21T00:34:40.219Z,63.60
2019-02-21T00:36:35.083Z,64.36
2019-02-21T00:37:35.051Z,63.89
2019-02-21T00:39:30.416Z,64.27
2019-02-21T00:40:30.374Z,64.17
2019-02-21T00:42:25.744Z,64.27
2019-02-21T00:43:25.705Z,64.46
2019-02-21T00:45:20.565Z,63.32
2019-02-21T00:46:20.534Z,63.79
2019-02-21T00:48:15.393Z,64.08
2019-02-21T00:49:15.354Z,64.74
2019-02-21T00:51:10.222Z,65.31
2019-02-21T00:52:10.174Z,65.59
2019-02-21T00:54:06.041Z,65.22
2019-02-21T00:55:06.008Z,64.93
2019-02-21T00:57:00.862Z,64.65
2019-02-21T00:58:00.824Z,65.22
2019-02-21T00:59:55.691Z,65.03
2019-02-21T01:00:55.655Z,64.55
2019-02-21T01:02:50.711Z,65.22
2019-02-21T01:03:50.667Z,65.03
2019-02-21T01:05:45.388Z,63.98
2019-02-21T01:06:45.336Z,64.17
2019-02-21T01:08:40.191Z,64.17
2019-02-21T01:09:40.159Z,63.89
2019-02-21T01:11:35.019Z,65.12
2019-02-21T01:12:34.982Z,65.69
2019-02-21T01:14:29.835Z,66.54
2019-02-21T01:15:29.799Z,65.50
2019-02-21T01:17:24.675Z,64.08
2019-02-21T01:18:24.653Z,64.08
2019-02-21T01:20:19.980Z,64.08
2019-02-21T01:21:19.944Z,64.08
2019-02-21T01:23:14.820Z,64.93
2019-02-21T01:24:14.768Z,64.71
2019-02-21T01:26:09.423Z,64.55
2019-02-21T01:27:09.393Z,64.27
2019-02-21T01:29:04.266Z,64.17
2019-02-21T01:30:04.212Z,64.74
2019-02-21T01:31:59.565Z,64.46
2019-02-21T01:32:59.532Z,64.55
2019-02-21T01:34:55.004Z,65.03
2019-02-21T01:35:54.968Z,64.46
2019-02-21T01:37:49.826Z,64.84
2019-02-21T01:38:49.807Z,65.12
2019-02-21T01:40:44.663Z,65.88
2019-02-21T01:41:44.625Z,65.88
2019-02-21T01:43:39.482Z,65.88
2019-02-21T01:44:39.455Z,65.41
2019-02-21T01:46:34.340Z,65.03
2019-02-21T01:47:34.284Z,65.03
2019-02-21T01:49:28.972Z,65.12
2019-02-21T01:50:31.432Z,65.03
2019-02-21T01:52:23.805Z,65.03
2019-02-21T01:53:23.758Z,65.03
2019-02-21T01:55:18.620Z,64.84
2019-02-21T01:56:18.585Z,65.03
2019-02-21T01:58:13.457Z,65.22
2019-02-21T01:59:13.420Z,64.93
2019-02-21T02:01:09.076Z,64.84
2019-02-21T02:02:08.256Z,65.12
2019-02-21T02:04:03.116Z,64.46
2019-02-21T02:05:03.082Z,64.46
2019-02-21T02:06:57.948Z,64.17
2019-02-21T02:07:57.911Z,64.14
2019-02-21T02:09:52.771Z,64.52
2019-02-21T02:10:52.734Z,64.90
2019-02-21T02:12:47.602Z,64.90
2019-02-21T02:13:47.563Z,65.69
2019-02-21T02:15:42.439Z,65.69
2019-02-21T02:16:42.397Z,65.69
2019-02-21T02:18:37.262Z,65.47
2019-02-21T02:19:37.215Z,65.78
2019-02-21T02:21:31.614Z,65.69
2019-02-21T02:22:31.553Z,65.28
2019-02-21T02:24:26.410Z,65.09
2019-02-21T02:25:26.374Z,65.00
2019-02-21T02:27:21.243Z,65.75
2019-02-21T02:28:21.203Z,65.37
2019-02-21T02:30:16.069Z,66.89
2019-02-21T02:31:22.934Z,66.51
2019-02-21T02:33:11.915Z,66.41
2019-02-21T02:34:11.867Z,66.41
2019-02-21T02:36:08.288Z,66.13
2019-02-21T02:37:07.694Z,66.22
2019-02-21T02:39:02.550Z,66.60
2019-02-21T02:40:02.523Z,66.32
2019-02-21T02:41:57.373Z,66.22
2019-02-21T02:42:57.342Z,66.51
2019-02-21T02:44:52.210Z,66.22
2019-02-21T02:45:52.169Z,66.80
2019-02-21T02:47:48.037Z,65.47
2019-02-21T02:48:47.999Z,65.56
2019-02-21T02:50:42.938Z,65.56
2019-02-21T02:51:42.821Z,65.56
2019-02-21T02:53:37.677Z,65.66
2019-02-21T02:54:37.648Z,66.22
2019-02-21T02:56:33.019Z,66.95
2019-02-21T02:57:32.969Z,67.61
2019-02-21T02:59:40.414Z,67.14
2019-02-21T03:00:28.807Z,67.52
2019-02-21T03:02:23.673Z,67.71
2019-02-21T03:03:23.621Z,67.52
2019-02-21T03:05:18.478Z,67.52
2019-02-21T03:06:18.435Z,67.14
2019-02-21T03:08:14.406Z,67.61
2019-02-21T03:09:14.341Z,67.52
2019-02-21T03:11:29.214Z,67.27
2019-02-21T03:12:29.187Z,68.02
2019-02-21T03:14:28.066Z,67.27
2019-02-21T03:15:28.007Z,67.65
2019-02-21T03:17:23.369Z,67.27
2019-02-21T03:18:23.336Z,67.46
2019-02-21T03:20:18.200Z,67.36
2019-02-21T03:21:18.234Z,67.27
2019-02-21T03:23:13.833Z,67.27
2019-02-21T03:24:13.799Z,67.36
2019-02-21T03:25:13.853Z,66.76
2019-02-21T03:26:13.763Z,67.46
2019-02-21T03:27:20.587Z,67.24
2019-02-21T03:28:13.736Z,67.93
2019-02-21T03:29:13.717Z,68.21
2019-02-21T03:30:13.724Z,67.18
2019-02-21T03:31:13.682Z,67.43
2019-02-21T03:32:13.679Z,67.14
2019-02-21T03:33:13.650Z,67.71
2019-02-21T03:34:13.633Z,67.61
2019-02-21T03:35:13.613Z,67.43
2019-02-21T03:36:13.707Z,68.18
2019-02-21T03:37:13.592Z,67.90
2019-02-21T03:38:13.570Z,67.71
2019-02-21T03:39:13.550Z,67.24
2019-02-21T03:40:13.527Z,67.61
2019-02-21T03:41:13.523Z,67.80
2019-02-21T03:42:13.508Z,68.27
2019-02-21T03:43:13.483Z,68.84
2019-02-21T03:44:13.462Z,68.65
2019-02-21T03:45:13.457Z,69.13
2019-02-21T03:46:13.433Z,68.75
2019-02-21T03:47:13.412Z,68.84
2019-02-21T03:48:13.397Z,68.94
2019-02-21T03:49:13.380Z,68.94
2019-02-21T03:50:13.360Z,69.22
2019-02-21T03:51:13.349Z,69.13
2019-02-21T03:52:13.333Z,69.22
2019-02-21T03:53:13.315Z,69.22
2019-02-21T03:54:13.297Z,69.22
2019-02-21T03:55:13.350Z,69.22
2019-02-21T03:56:13.260Z,68.94
2019-02-21T03:57:13.253Z,68.75
2019-02-21T03:58:13.242Z,69.03
2019-02-21T03:59:13.209Z,68.75
2019-02-21T04:00:13.201Z,68.75
2019-02-21T04:01:13.182Z,69.03
2019-02-21T04:02:13.159Z,69.13
2019-02-21T04:03:13.145Z,68.84
2019-02-21T04:04:13.129Z,68.84
2019-02-21T04:05:13.113Z,68.27
2019-02-21T04:06:13.097Z,68.27
2019-02-21T04:07:13.142Z,68.84
2019-02-21T04:08:13.057Z,68.84
2019-02-21T04:09:13.040Z,68.94
2019-02-21T04:10:13.029Z,68.84
2019-02-21T04:11:13.008Z,68.94
2019-02-21T04:12:13.010Z,67.99
2019-02-21T04:13:15.211Z,67.99
2019-02-21T04:14:12.964Z,67.80
2019-02-21T04:15:12.938Z,67.90
2019-02-21T04:16:12.926Z,67.80
2019-02-21T04:17:12.912Z,67.61
2019-02-21T04:18:12.894Z,67.55
2019-02-21T04:19:12.875Z,67.83
2019-02-21T04:20:12.869Z,68.08
2019-02-21T04:21:12.848Z,68.02
2019-02-21T04:22:12.826Z,67.93
2019-02-21T04:23:12.806Z,68.12
2019-02-21T04:24:12.787Z,67.14
2019-02-21T04:25:12.774Z,67.46
2019-02-21T04:26:12.756Z,67.36
2019-02-21T04:27:12.736Z,67.46
2019-02-21T04:28:12.723Z,67.36
2019-02-21T04:29:12.702Z,67.33
2019-02-21T04:30:12.688Z,67.33
2019-02-21T04:31:12.672Z,67.83
2019-02-21T04:32:17.087Z,67.43
2019-02-21T04:33:12.638Z,67.36
2019-02-21T04:34:12.621Z,67.46
2019-02-21T04:35:12.604Z,67.46
2019-02-21T04:36:12.593Z,67.55
2019-02-21T04:37:12.567Z,66.80
2019-02-21T04:38:12.552Z,66.70
2019-02-21T04:39:12.538Z,66.70
2019-02-21T04:40:12.525Z,66.41
2019-02-21T04:41:12.502Z,66.99
2019-02-21T04:42:12.483Z,66.80
2019-02-21T04:43:12.472Z,66.80
2019-02-21T04:44:12.450Z,67.18
2019-02-21T04:45:12.442Z,67.36
2019-02-21T04:46:12.424Z,66.89
2019-02-21T04:47:12.404Z,67.46
2019-02-21T04:48:12.389Z,67.65
2019-02-21T04:49:12.373Z,67.27
2019-02-21T04:50:12.351Z,67.65
2019-02-21T04:51:12.336Z,67.36
2019-02-21T04:52:12.345Z,67.46
2019-02-21T04:53:12.303Z,67.36
2019-02-21T04:54:12.289Z,67.08
2019-02-21T04:55:12.269Z,67.08
2019-02-21T04:56:12.257Z,67.08
2019-02-21T04:57:12.236Z,67.14
2019-02-21T04:58:12.222Z,67.27
2019-02-21T04:59:12.204Z,67.27
2019-02-21T05:00:12.187Z,67.18
2019-02-21T05:01:12.173Z,67.05
2019-02-21T05:02:12.153Z,67.43
2019-02-21T05:03:12.133Z,67.43
2019-02-21T05:04:12.119Z,67.14
2019-02-21T05:05:12.106Z,66.76
2019-02-21T05:06:12.094Z,66.70
2019-02-21T05:07:12.072Z,67.33
2019-02-21T05:08:12.049Z,67.74
2019-02-21T05:09:12.036Z,67.14
2019-02-21T05:10:12.023Z,67.46
2019-02-21T05:11:12.016Z,67.74
2019-02-21T05:12:11.987Z,67.55
2019-02-21T05:13:11.972Z,67.46
2019-02-21T05:14:11.953Z,67.61
2019-02-21T05:15:14.129Z,67.52
2019-02-21T05:16:11.926Z,67.52
2019-02-21T05:17:11.913Z,67.55
2019-02-21T05:18:11.887Z,66.99
2019-02-21T05:19:11.872Z,67.43
2019-02-21T05:20:11.852Z,67.24
2019-02-21T05:21:11.881Z,67.05
2019-02-21T05:22:11.818Z,67.43
2019-02-21T05:23:11.794Z,67.33
2019-02-21T05:24:11.778Z,67.61
2019-02-21T05:25:11.766Z,67.80
2019-02-21T05:26:11.749Z,67.99
2019-02-21T05:27:11.732Z,68.94
2019-02-21T05:28:11.715Z,68.84
2019-02-21T05:29:11.704Z,68.65
2019-02-21T05:30:11.684Z,67.71
2019-02-21T05:31:11.666Z,68.08
2019-02-21T05:32:11.654Z,67.80
2019-02-21T05:33:11.647Z,67.90
2019-02-21T05:34:11.617Z,68.37
2019-02-21T05:35:11.610Z,68.18
2019-02-21T05:36:11.579Z,68.37
2019-02-21T05:37:11.570Z,68.65
2019-02-21T05:38:11.550Z,68.75
2019-02-21T05:39:11.541Z,69.41
2019-02-21T05:40:11.526Z,69.41
2019-02-21T05:41:11.509Z,69.70
2019-02-21T05:42:11.483Z,69.70
2019-02-21T05:43:11.464Z,69.22
2019-02-21T05:44:11.462Z,69.03
2019-02-21T05:45:11.660Z,69.32
2019-02-21T05:46:11.418Z,69.51
2019-02-21T05:47:11.397Z,69.51
2019-02-21T05:48:11.392Z,69.60
2019-02-21T05:49:11.604Z,69.41
2019-02-21T05:50:11.347Z,68.84
2019-02-21T05:51:11.330Z,68.08
2019-02-21T05:52:11.319Z,67.99
2019-02-21T05:53:11.298Z,68.08
2019-02-21T05:54:12.720Z,67.99
2019-02-21T05:55:11.263Z,67.99
2019-02-21T05:56:11.256Z,67.99
2019-02-21T05:57:11.309Z,68.65
2019-02-21T05:58:12.741Z,68.94
2019-02-21T05:59:11.195Z,68.94
2019-02-21T06:00:11.181Z,69.03
2019-02-21T06:01:11.160Z,68.65
2019-02-21T06:02:11.144Z,68.84
2019-02-21T06:03:11.126Z,67.90
2019-02-21T06:04:11.110Z,68.08
2019-02-21T06:05:11.093Z,68.08
2019-02-21T06:06:11.081Z,68.84
2019-02-21T06:07:11.059Z,68.84
2019-02-21T06:08:11.048Z,69.70
2019-02-21T06:09:11.029Z,69.79
2019-02-21T06:10:11.010Z,69.41
2019-02-21T06:11:10.991Z,69.03
2019-02-21T06:12:10.975Z,68.37
2019-02-21T06:13:10.960Z,68.27
2019-02-21T06:14:10.944Z,67.80
2019-02-21T06:15:10.927Z,68.27
2019-02-21T06:16:10.906Z,68.18
2019-02-21T06:17:10.891Z,68.08
2019-02-21T06:18:10.875Z,68.75
2019-02-21T06:19:10.854Z,68.65
2019-02-21T06:20:10.843Z,68.27
2019-02-21T06:21:10.826Z,68.46
2019-02-21T06:22:11.325Z,67.43
2019-02-21T06:23:10.789Z,67.14
2019-02-21T06:24:10.777Z,67.43
2019-02-21T06:25:10.762Z,67.14
2019-02-21T06:26:10.748Z,67.33
2019-02-21T06:27:12.287Z,67.43
2019-02-21T06:28:10.712Z,67.61
2019-02-21T06:29:10.694Z,67.52
2019-02-21T06:30:10.671Z,66.76
2019-02-21T06:31:10.653Z,66.57
2019-02-21T06:32:14.205Z,66.76
2019-02-21T06:33:10.624Z,66.57
2019-02-21T06:34:10.607Z,66.57
2019-02-21T06:35:10.591Z,67.05
2019-02-21T06:36:10.570Z,67.24
2019-02-21T06:37:12.544Z,67.33
2019-02-21T06:38:10.546Z,67.33
2019-02-21T06:39:10.525Z,67.33
2019-02-21T06:40:10.508Z,67.33
2019-02-21T06:41:10.493Z,67.05
2019-02-21T06:42:10.475Z,66.76
2019-02-21T06:43:10.453Z,66.76
2019-02-21T06:44:10.443Z,67.52
2019-02-21T06:45:10.423Z,67.71
2019-02-21T06:46:10.403Z,67.61
2019-02-21T06:47:10.388Z,67.24
2019-02-21T06:48:10.367Z,67.52
2019-02-21T06:49:10.355Z,67.52
2019-02-21T06:50:10.347Z,67.52
2019-02-21T06:51:10.324Z,67.52
2019-02-21T06:52:10.310Z,67.43
2019-02-21T06:53:10.291Z,67.33
2019-02-21T06:54:10.270Z,67.33
2019-02-21T06:55:10.251Z,67.52
2019-02-21T06:56:10.234Z,67.14
2019-02-21T06:57:10.218Z,67.33
2019-02-21T06:58:10.202Z,67.52
2019-02-21T06:59:10.198Z,67.52
2019-02-21T07:00:10.182Z,67.24
2019-02-21T07:01:10.151Z,67.14
2019-02-21T07:02:10.134Z,66.86
2019-02-21T07:03:15.808Z,66.95
2019-02-21T07:04:10.098Z,66.76
2019-02-21T07:05:10.085Z,66.86
2019-02-21T07:06:10.068Z,67.43
2019-02-21T07:07:10.054Z,67.14
2019-02-21T07:08:10.037Z,67.24
2019-02-21T07:09:10.011Z,67.14
2019-02-21T07:10:10.000Z,67.24
2019-02-21T07:11:09.982Z,67.14
2019-02-21T07:12:10.729Z,66.95
2019-02-21T07:13:09.947Z,67.52
2019-02-21T07:14:09.929Z,67.61
2019-02-21T07:15:09.909Z,67.33
2019-02-21T07:16:09.897Z,67.61
2019-02-21T07:17:09.877Z,67.43
2019-02-21T07:18:11.171Z,67.33
2019-02-21T07:19:10.789Z,67.24
2019-02-21T07:20:09.827Z,67.24
2019-02-21T07:21:09.816Z,67.14
2019-02-21T07:22:09.793Z,67.52
2019-02-21T07:23:11.354Z,67.52
2019-02-21T07:24:09.761Z,66.95
2019-02-21T07:25:09.743Z,66.95
2019-02-21T07:26:09.728Z,67.14
2019-02-21T07:27:09.701Z,67.14
2019-02-21T07:28:12.569Z,67.33
2019-02-21T07:29:09.672Z,67.24
2019-02-21T07:30:19.486Z,67.43
2019-02-21T07:31:09.638Z,67.05
2019-02-21T07:32:09.624Z,67.71
2019-02-21T07:33:09.609Z,66.95
2019-02-21T07:34:09.587Z,66.95
2019-02-21T07:35:09.582Z,66.86
2019-02-21T07:36:11.036Z,67.18
2019-02-21T07:37:18.221Z,67.24
2019-02-21T07:38:09.519Z,67.55
2019-02-21T07:39:17.456Z,66.89
2019-02-21T07:40:19.489Z,65.94
2019-02-21T07:41:09.605Z,65.94
2019-02-21T07:42:09.453Z,66.03
2019-02-21T07:43:09.435Z,66.13
2019-02-21T07:44:12.377Z,66.41
2019-02-21T07:45:09.425Z,65.47
2019-02-21T07:46:09.397Z,65.66
2019-02-21T07:47:09.368Z,65.19
2019-02-21T07:48:09.351Z,65.41
2019-02-21T07:49:09.335Z,64.46
2019-02-21T07:50:09.317Z,64.17
2019-02-21T07:51:09.299Z,63.79
2019-02-21T07:52:09.280Z,63.13
2019-02-21T07:53:09.262Z,63.26
2019-02-21T07:54:09.252Z,62.88
2019-02-21T07:55:10.556Z,62.31
2019-02-21T07:56:09.215Z,62.50
2019-02-21T07:57:09.197Z,62.02
2019-02-21T07:58:09.183Z,61.74
2019-02-21T07:59:11.950Z,62.24
2019-02-21T08:00:09.151Z,61.87
2019-02-21T08:01:09.131Z,61.68
2019-02-21T08:02:09.113Z,61.96
2019-02-21T08:03:09.361Z,61.77
2019-02-21T08:04:09.083Z,61.20
2019-02-21T08:05:09.067Z,61.39
2019-02-21T08:06:09.057Z,61.23
2019-02-21T08:07:09.034Z,60.57
2019-02-21T08:08:09.395Z,61.04
2019-02-21T08:09:08.998Z,60.47
2019-02-21T08:10:08.993Z,60.10
2019-02-21T08:11:08.972Z,59.43
2019-02-21T08:12:08.961Z,58.48
2019-02-21T08:13:08.949Z,58.13
2019-02-21T08:14:08.922Z,58.13
2019-02-21T08:15:11.754Z,57.65
2019-02-21T08:16:08.902Z,57.46
2019-02-21T08:17:08.875Z,56.89
2019-02-21T08:18:08.865Z,56.51
2019-02-21T08:19:08.849Z,56.54
2019-02-21T08:20:08.983Z,56.35
2019-02-21T08:21:08.816Z,55.59
2019-02-21T08:22:08.802Z,55.30
2019-02-21T08:23:11.010Z,54.45
2019-02-21T08:24:08.775Z,54.64
2019-02-21T08:25:08.754Z,54.19
2019-02-21T08:26:08.741Z,54.77
2019-02-21T08:27:08.726Z,54.48
2019-02-21T08:28:08.710Z,55.33
2019-02-21T08:29:08.698Z,54.96
2019-02-21T08:30:08.681Z,54.48
2019-02-21T08:31:08.672Z,54.57
2019-02-21T08:32:08.683Z,54.29
2019-02-21T08:33:08.635Z,54.32
2019-02-21T08:34:08.618Z,54.13
2019-02-21T08:35:08.625Z,53.55
2019-02-21T08:36:08.592Z,53.46
2019-02-21T08:37:08.884Z,53.27
2019-02-21T08:38:08.560Z,53.36
2019-02-21T08:39:08.543Z,53.55
2019-02-21T08:40:08.531Z,52.82
2019-02-21T08:41:08.527Z,52.44
2019-02-21T08:42:08.503Z,52.06
2019-02-21T08:43:08.486Z,52.34
2019-02-21T08:44:08.481Z,52.15
2019-02-21T08:45:08.463Z,52.25
2019-02-21T08:46:08.445Z,52.25
2019-02-21T08:47:08.429Z,52.44
2019-02-21T08:48:08.435Z,52.47
2019-02-21T08:49:08.406Z,51.23
2019-02-21T08:50:08.394Z,51.23
2019-02-21T08:51:08.374Z,50.75
2019-02-21T08:52:08.365Z,50.27
2019-02-21T08:53:08.345Z,50.30
2019-02-21T08:54:08.335Z,50.30
2019-02-21T08:55:08.322Z,49.73
2019-02-21T08:56:08.308Z,49.54
2019-02-21T08:57:08.291Z,49.16
2019-02-21T08:58:08.280Z,48.30
2019-02-21T08:59:08.264Z,48.61
2019-02-21T09:00:10.873Z,47.85
2019-02-21T09:01:08.234Z,47.66
2019-02-21T09:02:08.227Z,46.99
2019-02-21T09:03:08.214Z,47.18
2019-02-21T09:04:13.606Z,46.89
2019-02-21T09:05:09.499Z,46.23
2019-02-21T09:06:08.173Z,46.23
2019-02-21T09:07:08.195Z,46.42
2019-02-21T09:08:08.146Z,46.13
2019-02-21T09:09:08.135Z,46.23
2019-02-21T09:10:08.115Z,46.44
2019-02-21T09:11:08.113Z,46.15
2019-02-21T09:12:08.113Z,45.49
2019-02-21T09:13:08.080Z,45.20
2019-02-21T09:14:08.070Z,45.10
2019-02-21T09:15:08.054Z,45.01
2019-02-21T09:16:08.040Z,44.82
2019-02-21T09:17:08.035Z,44.53
2019-02-21T09:18:08.014Z,44.25
2019-02-21T09:19:08.001Z,44.44
2019-02-21T09:20:07.991Z,44.44
2019-02-21T09:21:07.972Z,44.25
2019-02-21T09:22:07.967Z,45.01
2019-02-21T09:23:07.953Z,45.10
2019-02-21T09:24:07.940Z,44.74
2019-02-21T09:25:07.926Z,44.74
2019-02-21T09:26:07.919Z,43.98
2019-02-21T09:27:07.897Z,44.37
2019-02-21T09:28:07.886Z,43.98
2019-02-21T09:29:07.872Z,43.89
2019-02-21T09:30:07.862Z,43.60
2019-02-21T09:31:07.854Z,43.62
2019-02-21T09:32:07.843Z,43.62
2019-02-21T09:33:16.996Z,43.53
2019-02-21T09:34:07.818Z,43.43
2019-02-21T09:35:07.802Z,43.24
2019-02-21T09:36:07.790Z,42.96
2019-02-21T09:37:07.784Z,42.96
2019-02-21T09:38:07.766Z,42.57
2019-02-21T09:39:07.753Z,42.21
2019-02-21T09:40:07.742Z,42.02
2019-02-21T09:41:07.733Z,41.35
2019-02-21T09:42:07.721Z,41.74
2019-02-21T09:43:07.707Z,41.45
2019-02-21T09:44:07.694Z,41.26
2019-02-21T09:45:09.327Z,41.64
2019-02-21T09:46:07.670Z,40.97
2019-02-21T09:47:07.662Z,41.56
2019-02-21T09:48:07.647Z,40.61
2019-02-21T09:49:07.634Z,40.52
2019-02-21T09:50:07.630Z,40.03
2019-02-21T09:51:07.618Z,40.23
2019-02-21T09:52:07.603Z,40.42
2019-02-21T09:53:07.595Z,40.03
2019-02-21T09:54:07.579Z,40.03
2019-02-21T09:55:07.575Z,39.47
2019-02-21T09:56:07.554Z,39.94
2019-02-21T09:57:13.178Z,39.94
2019-02-21T09:58:07.535Z,40.23
2019-02-21T09:59:07.526Z,39.96
2019-02-21T10:00:07.525Z,40.06
2019-02-21T10:01:07.507Z,39.20
2019-02-21T10:02:07.485Z,39.29
2019-02-21T10:03:07.477Z,37.85
2019-02-21T10:04:07.464Z,36.80
2019-02-21T10:05:07.460Z,35.85
2019-02-21T10:06:08.332Z,35.26
2019-02-21T10:07:07.431Z,35.16
2019-02-21T10:08:07.422Z,35.26
2019-02-21T10:09:07.411Z,37.26
2019-02-21T10:10:08.145Z,38.53
2019-02-21T10:11:07.386Z,39.10
2019-02-21T10:12:07.374Z,39.10
2019-02-21T10:13:07.368Z,38.91
2019-02-21T10:14:07.360Z,38.07
2019-02-21T10:15:07.347Z,36.82
2019-02-21T10:16:07.342Z,36.73
2019-02-21T10:17:07.321Z,36.08
2019-02-21T10:18:07.313Z,35.50
2019-02-21T10:19:07.312Z,34.74
2019-02-21T10:20:07.294Z,34.36
2019-02-21T10:21:07.279Z,34.55
2019-02-21T10:22:07.275Z,33.89
2019-02-21T10:23:07.263Z,33.41
2019-02-21T10:24:07.253Z,32.75
2019-02-21T10:25:07.242Z,32.26
2019-02-21T10:26:07.233Z,32.07
2019-02-21T10:27:07.220Z,32.65
2019-02-21T10:28:07.209Z,32.75
2019-02-21T10:29:07.201Z,32.93
2019-02-21T10:30:07.196Z,33.03
2019-02-21T10:31:07.188Z,32.93
2019-02-21T10:32:07.168Z,32.46
2019-02-21T10:33:07.162Z,32.18
2019-02-21T10:34:07.225Z,32.18
2019-02-21T10:35:07.140Z,31.99
2019-02-21T10:36:07.134Z,31.99
2019-02-21T10:37:07.122Z,31.71
2019-02-21T10:38:07.110Z,31.99
2019-02-21T10:39:07.100Z,31.99
2019-02-21T10:40:07.091Z,31.71
2019-02-21T10:41:08.886Z,31.92
2019-02-21T10:42:07.073Z,31.63
2019-02-21T10:43:07.063Z,31.16
2019-02-21T10:44:07.051Z,30.49
2019-02-21T10:45:07.037Z,30.01
2019-02-21T10:46:07.033Z,29.71
2019-02-21T10:47:07.021Z,29.63
2019-02-21T10:48:07.010Z,29.63
2019-02-21T10:49:07.004Z,29.53
2019-02-21T10:50:06.992Z,29.42
2019-02-21T10:51:06.978Z,29.63
2019-02-21T10:52:06.980Z,29.44
2019-02-21T10:53:06.966Z,29.34
2019-02-21T10:54:06.956Z,28.86
2019-02-21T10:55:06.950Z,28.96
2019-02-21T10:56:06.939Z,28.57
2019-02-21T10:57:06.925Z,28.88
2019-02-21T10:58:06.915Z,29.16
2019-02-21T10:59:06.906Z,29.55
2019-02-21T11:00:06.903Z,29.45
2019-02-21T11:01:06.891Z,28.50
2019-02-21T11:02:06.881Z,28.31
2019-02-21T11:03:06.874Z,28.31
2019-02-21T11:04:06.866Z,28.60
2019-02-21T11:05:06.853Z,28.31
2019-02-21T11:06:06.849Z,27.84
2019-02-21T11:07:06.837Z,27.17
2019-02-21T11:08:06.827Z,26.89
2019-02-21T11:09:06.818Z,26.13
2019-02-21T11:10:06.809Z,25.74
2019-02-21T11:11:06.803Z,26.13
2019-02-21T11:12:06.792Z,26.13
2019-02-21T11:13:06.790Z,26.04
2019-02-21T11:14:06.775Z,26.04
2019-02-21T11:15:06.768Z,25.74
2019-02-21T11:16:06.756Z,26.13
2019-02-21T11:17:06.750Z,26.51
2019-02-21T11:18:06.747Z,27.09
2019-02-21T11:19:06.732Z,26.13
2019-02-21T11:20:06.725Z,25.65
2019-02-21T11:21:06.717Z,26.04
2019-02-21T11:22:06.709Z,25.74
2019-02-21T11:23:06.790Z,25.94
2019-02-21T11:24:06.695Z,25.84
2019-02-21T11:25:06.688Z,25.74
2019-02-21T11:26:06.673Z,25.94
2019-02-21T11:27:06.691Z,25.94
2019-02-21T11:28:06.666Z,25.84
2019-02-21T11:29:06.655Z,25.67
2019-02-21T11:30:06.646Z,25.67
2019-02-21T11:31:06.641Z,25.38
2019-02-21T11:32:06.628Z,25.09
2019-02-21T11:33:06.623Z,25.48
2019-02-21T11:34:06.615Z,25.38
2019-02-21T11:35:06.986Z,25.87
2019-02-21T11:36:06.595Z,25.58
2019-02-21T11:37:06.584Z,25.39
2019-02-21T11:38:06.582Z,25.39
2019-02-21T11:39:06.572Z,25.29
2019-02-21T11:40:06.565Z,25.20
2019-02-21T11:41:06.556Z,25.28
2019-02-21T11:42:06.549Z,24.90
2019-02-21T11:43:06.542Z,25.28
2019-02-21T11:44:06.533Z,25.39
2019-02-21T11:45:06.531Z,25.58
2019-02-21T11:46:06.523Z,26.06
2019-02-21T11:47:06.527Z,25.88
2019-02-21T11:48:09.136Z,25.59
2019-02-21T11:49:06.504Z,24.54
2019-02-21T11:50:06.485Z,24.15
2019-02-21T11:51:07.450Z,23.97
2019-02-21T11:52:10.180Z,23.49
2019-02-21T11:53:06.467Z,23.58
2019-02-21T11:54:06.464Z,23.10
2019-02-21T11:55:06.452Z,23.39
2019-02-21T11:56:06.446Z,23.78
2019-02-21T11:57:06.436Z,24.08
2019-02-21T11:58:06.432Z,23.78
2019-02-21T11:59:06.431Z,24.27
2019-02-21T12:00:06.415Z,24.46
2019-02-21T12:01:06.420Z,24.85
2019-02-21T12:02:06.401Z,25.04
2019-02-21T12:03:06.393Z,25.81
2019-02-21T12:04:06.393Z,25.52
2019-02-21T12:05:16.856Z,26.02
2019-02-21T12:06:06.376Z,25.82
2019-02-21T12:07:06.374Z,25.24
2019-02-21T12:08:06.362Z,25.34
2019-02-21T12:09:06.358Z,25.92
2019-02-21T12:10:06.346Z,25.34
2019-02-21T12:11:06.345Z,24.19
2019-02-21T12:12:06.337Z,23.41
2019-02-21T12:13:06.325Z,23.31
2019-02-21T12:14:06.325Z,22.92
2019-02-21T12:15:06.325Z,23.21
2019-02-21T12:16:06.306Z,23.40
2019-02-21T12:17:06.301Z,23.40
2019-02-21T12:18:06.295Z,22.34
2019-02-21T12:19:06.285Z,22.25
2019-02-21T12:20:06.299Z,23.02
2019-02-21T12:21:06.268Z,23.50
2019-02-21T12:22:06.271Z,23.40
2019-02-21T12:23:06.336Z,22.44
2019-02-21T12:24:06.260Z,22.55
2019-02-21T12:25:06.245Z,22.26
2019-02-21T12:26:06.241Z,22.74
2019-02-21T12:27:06.234Z,22.55
2019-02-21T12:28:06.221Z,22.45
2019-02-21T12:29:06.221Z,22.56
2019-02-21T12:30:06.216Z,22.56
2019-02-21T12:31:06.202Z,22.27
2019-02-21T12:32:06.196Z,22.17
2019-02-21T12:33:06.197Z,22.36
2019-02-21T12:34:06.187Z,22.08
2019-02-21T12:35:06.179Z,21.69
2019-02-21T12:36:06.171Z,21.79
2019-02-21T12:37:06.169Z,21.40
2019-02-21T12:38:06.154Z,21.31
2019-02-21T12:39:06.155Z,21.88
2019-02-21T12:40:06.144Z,21.88
2019-02-21T12:41:06.139Z,21.88
2019-02-21T12:42:06.136Z,21.98
2019-02-21T12:43:06.126Z,21.98
2019-02-21T12:44:06.122Z,21.98
2019-02-21T12:45:06.156Z,22.09
2019-02-21T12:46:06.112Z,22.28
2019-02-21T12:47:06.100Z,21.89
2019-02-21T12:48:06.090Z,21.89
2019-02-21T12:49:06.088Z,22.28
2019-02-21T12:50:06.083Z,22.00
2019-02-21T12:51:06.075Z,21.81
2019-02-21T12:52:06.069Z,21.81
2019-02-21T12:53:06.064Z,21.71
2019-02-21T12:54:06.063Z,21.71
2019-02-21T12:55:06.053Z,21.62
2019-02-21T12:56:06.046Z,21.52
2019-02-21T12:57:06.040Z,20.84
2019-02-21T12:58:06.032Z,20.74
2019-02-21T12:59:06.028Z,20.83
2019-02-21T13:00:06.018Z,21.33
2019-02-21T13:01:06.017Z,21.33
2019-02-21T13:02:06.006Z,21.42
2019-02-21T13:03:06.002Z,21.04
2019-02-21T13:04:05.996Z,20.94
2019-02-21T13:05:05.987Z,20.65
2019-02-21T13:06:05.989Z,21.13
2019-02-21T13:07:05.981Z,20.84
2019-02-21T13:08:05.968Z,20.83
2019-02-21T13:09:05.964Z,21.31
2019-02-21T13:10:05.961Z,21.12
2019-02-21T13:11:05.950Z,21.03
2019-02-21T13:12:05.946Z,20.93
2019-02-21T13:13:05.937Z,21.12
2019-02-21T13:14:05.939Z,21.61
2019-02-21T13:15:05.929Z,21.31
2019-02-21T13:16:05.925Z,21.31
2019-02-21T13:17:05.914Z,20.93
2019-02-21T13:18:15.273Z,21.12
2019-02-21T13:19:05.908Z,21.03
2019-02-21T13:20:05.890Z,21.12
2019-02-21T13:21:05.886Z,21.88
2019-02-21T13:22:05.886Z,21.70
2019-02-21T13:23:05.885Z,21.61
2019-02-21T13:24:05.870Z,21.22
2019-02-21T13:25:05.902Z,21.31
2019-02-21T13:26:05.863Z,21.61
2019-02-21T13:27:05.856Z,21.61
2019-02-21T13:28:05.849Z,21.61
2019-02-21T13:29:05.837Z,22.19
2019-02-21T13:30:05.848Z,21.80
2019-02-21T13:31:05.924Z,21.70
2019-02-21T13:32:05.834Z,21.62
2019-02-21T13:33:05.819Z,21.89
2019-02-21T13:34:05.807Z,21.71
2019-02-21T13:35:05.804Z,20.84
2019-02-21T13:36:05.800Z,21.42
2019-02-21T13:37:05.790Z,21.23
2019-02-21T13:38:05.789Z,21.13
2019-02-21T13:39:05.782Z,21.04
2019-02-21T13:40:05.777Z,20.94
2019-02-21T13:41:05.770Z,21.13
2019-02-21T13:42:05.763Z,20.65
2019-02-21T13:43:05.752Z,20.75
2019-02-21T13:44:05.749Z,21.04
2019-02-21T13:45:05.742Z,20.26
2019-02-21T13:46:05.735Z,21.04
2019-02-21T13:47:05.735Z,20.94
2019-02-21T13:48:05.725Z,20.83
2019-02-21T13:49:05.723Z,20.93
2019-02-21T13:50:05.717Z,21.41
2019-02-21T13:51:05.706Z,21.61
2019-02-21T13:52:05.700Z,21.89
2019-02-21T13:53:05.696Z,21.99
2019-02-21T13:54:05.691Z,22.00
2019-02-21T13:55:05.686Z,21.91
2019-02-21T13:56:05.674Z,21.71
2019-02-21T13:57:05.667Z,21.13
2019-02-21T13:58:05.665Z,21.71
2019-02-21T13:59:05.666Z,21.71